ESSAESGG

Guest
Details From ESSA - Stockholm Arlanda
To ESGG - Goteborg Landvetter
Flight Number -
Tags Routegen
Created
Modified
Stats Distance 218 nm / 404 km
Max Altitude 0 ft / 0 m
Waypoints 4
Social Downloads 5
Likes 0
Share VATSIM

Download

Looking for another format? Having issues loading an existing format? Contact us
Advertisement - Login to hide

Notes

None

Route

ESSA +59.49_+017.86 +58.07_+012.65 ESGG

ID Type Via Altitude Latitude Longitude Leg Dist Tot Dist Heading (true) Name
O ESSA APT - 0 ft / 0 m 59.63726˚ 17.91323˚ - 0 nm - -
+59.49_+017.86 DME - 0 ft / 0 m 59.49487˚ 17.86199˚ 8 nm 8 nm 190° / 190° -
+58.07_+012.65 DME - 0 ft / 0 m 58.06609˚ 12.65103˚ 183 nm 192 nm 244° / 240° -
O ESGG APT - 0 ft / 0 m 57.67615˚ 12.29193˚ 26 nm 218 nm 206° / 206° -

Altitude Profile

Advertisement - Login to hide

Weather


0- 5 10 15 20 25 30 35+ Temperature / ° C

Clouds and Precipitation
Forecast for 2018-05-20 12:00 UTC. Updated an hour ago

Ground ~20,000 ft ~40,000 ft Winds

ESSA

Details ICAO ESSA (ARN)
Name Stockholm Arlanda
Region Sweden
Timezone Europe/Stockholm (UTC+2.0)
Stats Elevation 137 ft / 42 m (AMSL)
Location 59.650140° 17.943628°
Runways 3
Magnetic Variation 6.170° E

METAR

ESSA 201020Z 24012KT CAVOK 23/05 Q1026 NOSIG

Decode

TAF

TAF ESSA 200530Z 2006/2106 23010KT CAVOK

Decode

Departure Runways

ID Width Length Bearing (true) Bearing (mag) Surface Threshold Offset Overrun Length
01L 148 ft / 45 m 10,812 ft / 3,296 m 10.35° 4.18° Concrete 0 ft / 0 m 0 ft / 0 m
01R 148 ft / 45 m 8,188 ft / 2,496 m 10.38° 4.21° Asphalt 0 ft / 0 m 0 ft / 0 m
08 148 ft / 45 m 8,178 ft / 2,493 m 75.83° 69.66° Concrete 0 ft / 0 m 0 ft / 0 m
19L 148 ft / 45 m 8,188 ft / 2,496 m 190.39° 184.22° Asphalt 0 ft / 0 m 0 ft / 0 m
19R 148 ft / 45 m 10,812 ft / 3,296 m 190.36° 184.19° Concrete 0 ft / 0 m 0 ft / 0 m
26 148 ft / 45 m 8,178 ft / 2,493 m 255.87° 249.70° Concrete 0 ft / 0 m 0 ft / 0 m

ESGG

Details ICAO ESGG (GOT)
Name Goteborg Landvetter
Region Sweden
Timezone Europe/Stockholm (UTC+2.0)
Stats Elevation 506 ft / 154 m (AMSL)
Location 57.662836° 12.279819°
Runways 1
Magnetic Variation 3.782° E

METAR

ESGG 201020Z 25010KT 9999 FEW045 18/09 Q1028

Decode

TAF

TAF AMD ESGG 201018Z 2010/2106 25008KT CAVOK

Decode

Destination Runways

ID Width Length Bearing (true) Bearing (mag) Surface Threshold Offset Overrun Length
03 148 ft / 45 m 10,804 ft / 3,293 m 25.94° 22.16° Asphalt 0 ft / 0 m 207 ft / 63 m
21 148 ft / 45 m 10,804 ft / 3,293 m 205.96° 202.18° Asphalt 0 ft / 0 m 207 ft / 63 m

Approach Navaids

Runway Type Ident Frequency Range Bearing (true) Bearing (mag) Slope Elevation
03 Localiser SSG 110.30 MHz 18 nm / 33 km 25.98° 22.19° - 506 ft / 154 m (AMSL)
03 Glidescope SSG 110.30 MHz 10 nm / 19 km 25.95° 22.17° 3.00° 506 ft / 154 m (AMSL)
21 Localiser NGG 108.50 MHz 18 nm / 33 km 205.92° 202.14° - 506 ft / 154 m (AMSL)
21 Glidescope NGG 108.50 MHz 10 nm / 19 km 205.95° 202.17° 3.00° 506 ft / 154 m (AMSL)

Popular Alternatives